Trabzon, Turkey

9:42 AM EEST on August 30, 2015 (GMT +0300)
Trabzon | | Change Station
CLOSE
Current Station
Airport
Location: Trabzon,
Elevation: 102 ft
Nearby Weather Stations

Elev 102 ft 40.99 °N, 39.78 °E | Updated 22 minutes ago

Mostly Cloudy
Mostly Cloudy
75 °F
Feels Like 75 °F
N
6
Wind Variable Wind from West

Today
High -- | Low -- °F
--% Chance of Precip.
Yesterday
High -- | Low -- °F
Precip. -- in
5:45 AM 6:57 PM
Full, 100% visible
Pressure 30.09 in
Visibility 6.2 miles
Clouds Few 3000 ft
Mostly Cloudy 9000 ft
Dew Point 64 °F
Humidity 69%
Rainfall 0.00 in
Snow Depth Not available.
UV 2 out of 12
Pollen Not available.
Air Quality Not available.
Flu Activity Not available.
METAR LTCG 300620Z 28005KT 250V310 9999 FEW030 BKN090 24/18 Q1019 NOSIG
Pressure 30.09 in
Visibility 6.2 miles
Clouds Few 3000 ft
Mostly Cloudy 9000 ft
Dew Point 64 °F
Humidity 69%
Rainfall 0.00 in
Snow Depth Not available.
UV 2 out of 12
Pollen Not available.
Air Quality Not available.
Flu Activity Not available.
METAR LTCG 300620Z 28005KT 250V310 9999 FEW030 BKN090 24/18 Q1019 NOSIG

10-Day Weather Forecast

×

Almanac

Astronomy

Aug. 30, 2015 Rise Set
Actual Time
Civil Twilight
Nautical Twilight
Astronomical Twilight
Moon
Length of Visible Light
Length of Day
Tomorrow will be .
, % of the Moon is Illuminated

Today's Extremes

Country Highs Country Lows

Community

WunderPhotos

Upload Photos

1,850,904 photos uploaded!

WunderBlogs® & News

Nearby

Air Quality

  Air Quality AQ Index Pollutant
Not available.

Snow Depth

Station Depth Elevation

Earthquake Activity

City Distance Mag. Time & Date
Minimum magnitude displayed is 2.5.

Coastal Water Temperatures

Place Temperature

Stations

Nearby Weather Stations

Station Location Temp. Windchill Dew Point Humidity Wind Precip. Elev Updated Type